createdAt,value
2023-03-11T00:01:30.014Z,4.60
2023-03-11T00:04:01.129Z,4.60
2023-03-11T00:06:31.973Z,4.50
2023-03-11T00:09:05.066Z,4.60
2023-03-11T00:11:36.025Z,4.50
2023-03-11T00:14:07.050Z,4.50
2023-03-11T00:16:38.060Z,4.50
2023-03-11T00:19:11.044Z,4.40
2023-03-11T00:21:42.049Z,4.30
2023-03-11T00:24:13.020Z,4.40
2023-03-11T00:26:43.891Z,4.30
2023-03-11T00:29:15.490Z,4.30
2023-03-11T00:31:46.476Z,4.20
2023-03-11T00:34:17.526Z,4.20
2023-03-11T00:36:48.521Z,4.10
2023-03-11T00:39:19.429Z,4.20
2023-03-11T00:41:51.765Z,4.10
2023-03-11T00:44:24.681Z,4.10
2023-03-11T00:46:55.626Z,4.10
2023-03-11T00:49:26.576Z,4.00
2023-03-11T00:51:57.456Z,4.10
2023-03-11T00:54:28.603Z,4.10
2023-03-11T00:56:59.532Z,4.10
2023-03-11T00:59:30.398Z,4.10
2023-03-11T01:02:01.241Z,4.10
2023-03-11T01:04:32.162Z,4.10
2023-03-11T01:07:03.496Z,4.00
2023-03-11T01:09:34.465Z,4.00
2023-03-11T01:12:05.745Z,4.00
2023-03-11T01:14:36.652Z,4.00
2023-03-11T01:17:07.610Z,3.90
2023-03-11T01:19:38.503Z,3.90
2023-03-11T01:22:10.151Z,3.90
2023-03-11T01:24:41.047Z,3.80
2023-03-11T01:27:11.930Z,3.80
2023-03-11T01:29:42.851Z,3.80
2023-03-11T01:32:13.755Z,3.80
2023-03-11T01:34:44.651Z,3.80
2023-03-11T01:37:15.480Z,3.80
2023-03-11T01:39:46.644Z,3.70
2023-03-11T01:42:17.729Z,3.70
2023-03-11T01:44:48.610Z,3.60
2023-03-11T01:47:38.751Z,3.60
2023-03-11T01:50:13.525Z,3.50
2023-03-11T01:52:44.821Z,3.40
2023-03-11T01:55:18.861Z,3.40
2023-03-11T01:57:51.895Z,3.40
2023-03-11T02:00:23.111Z,3.40
2023-03-11T02:02:57.961Z,3.40
2023-03-11T02:05:29.326Z,3.40
2023-03-11T02:08:00.765Z,3.30
2023-03-11T02:10:31.862Z,3.30
2023-03-11T02:13:04.223Z,3.30
2023-03-11T02:15:35.383Z,3.30
2023-03-11T02:18:07.401Z,3.30
2023-03-11T02:21:08.523Z,3.30
2023-03-11T02:24:00.320Z,3.30
2023-03-11T02:26:58.510Z,3.30
2023-03-11T02:29:30.506Z,3.20
2023-03-11T02:32:10.431Z,3.20
2023-03-11T02:34:41.387Z,3.10
2023-03-11T02:37:15.861Z,3.10
2023-03-11T02:39:53.699Z,3.10
2023-03-11T02:42:32.405Z,3.00
2023-03-11T02:45:14.313Z,3.10
2023-03-11T02:47:45.209Z,3.00
2023-03-11T02:50:18.321Z,3.00
2023-03-11T02:52:50.201Z,3.00
2023-03-11T02:55:21.537Z,3.00
2023-03-11T02:57:52.402Z,2.90
2023-03-11T03:00:23.359Z,2.90
2023-03-11T03:02:54.876Z,2.90
2023-03-11T03:05:25.806Z,2.90
2023-03-11T03:07:56.682Z,2.90
2023-03-11T03:10:27.604Z,2.80
2023-03-11T03:12:58.505Z,2.80
2023-03-11T03:15:29.420Z,2.70
2023-03-11T03:18:00.294Z,2.70
2023-03-11T03:20:31.450Z,2.70
2023-03-11T03:23:02.564Z,2.70
2023-03-11T03:25:33.482Z,2.60
2023-03-11T03:28:04.695Z,2.60
2023-03-11T03:30:35.652Z,2.60
2023-03-11T03:33:07.532Z,2.50
2023-03-11T03:35:43.350Z,2.50
2023-03-11T03:38:14.294Z,2.50
2023-03-11T03:40:48.710Z,2.50
2023-03-11T03:43:19.582Z,2.50
2023-03-11T03:46:05.179Z,2.50
2023-03-11T03:48:36.875Z,2.50
2023-03-11T03:51:12.126Z,2.50
2023-03-11T03:53:43.972Z,2.40
2023-03-11T03:56:17.384Z,2.40
2023-03-11T03:58:48.329Z,2.40
2023-03-11T04:01:19.234Z,2.40
2023-03-11T04:03:50.296Z,2.30
2023-03-11T04:06:25.271Z,2.40
2023-03-11T04:08:56.353Z,2.40
2023-03-11T04:11:27.219Z,2.40
2023-03-11T04:13:58.085Z,2.30
2023-03-11T04:16:29.008Z,2.30
2023-03-11T04:18:59.911Z,2.40
2023-03-11T04:21:31.991Z,2.40
2023-03-11T04:24:03.356Z,2.40
2023-03-11T04:26:34.825Z,2.40
2023-03-11T04:29:05.768Z,2.40
2023-03-11T04:31:36.755Z,2.40
2023-03-11T04:34:07.667Z,2.40
2023-03-11T04:36:38.811Z,2.40
2023-03-11T04:39:09.692Z,2.30
2023-03-11T04:41:40.616Z,2.30
2023-03-11T04:44:11.553Z,2.30
2023-03-11T04:46:42.441Z,2.20
2023-03-11T04:49:13.323Z,2.20
2023-03-11T04:51:44.450Z,2.20
2023-03-11T04:54:15.333Z,2.20
2023-03-11T04:56:46.301Z,2.10
2023-03-11T04:59:17.201Z,2.20
2023-03-11T05:01:48.146Z,2.20
2023-03-11T05:04:19.086Z,2.10
2023-03-11T05:06:51.281Z,2.10
2023-03-11T05:09:22.331Z,2.10
2023-03-11T05:11:53.229Z,2.00
2023-03-11T05:14:24.127Z,2.00
2023-03-11T05:16:55.040Z,2.00
2023-03-11T05:19:32.046Z,2.00
2023-03-11T05:22:04.487Z,1.90
2023-03-11T05:24:35.384Z,1.90
2023-03-11T05:27:06.322Z,1.90
2023-03-11T05:29:37.235Z,2.00
2023-03-11T05:32:08.275Z,1.90
2023-03-11T05:34:39.258Z,1.90
2023-03-11T05:37:10.149Z,1.90
2023-03-11T05:39:48.484Z,1.90
2023-03-11T05:42:21.354Z,1.90
2023-03-11T05:44:52.476Z,1.90
2023-03-11T05:47:23.390Z,1.90
2023-03-11T05:49:54.316Z,1.90
2023-03-11T05:52:25.261Z,1.90
2023-03-11T05:54:56.301Z,1.80
2023-03-11T05:57:27.228Z,1.80
2023-03-11T05:59:58.174Z,1.80
2023-03-11T06:02:29.023Z,1.80
2023-03-11T06:05:00.046Z,1.80
2023-03-11T06:07:30.991Z,1.80
2023-03-11T06:10:03.779Z,1.90
2023-03-11T06:12:35.469Z,1.90
2023-03-11T06:15:08.071Z,1.90
2023-03-11T06:17:38.925Z,1.90
2023-03-11T06:20:10.940Z,1.80
2023-03-11T06:22:41.823Z,1.80
2023-03-11T06:25:12.979Z,1.80
2023-03-11T06:27:44.708Z,1.80
2023-03-11T06:30:16.025Z,1.80
2023-03-11T06:32:47.712Z,1.90
2023-03-11T06:35:18.786Z,1.80
2023-03-11T06:37:49.660Z,1.90
2023-03-11T06:40:20.723Z,1.90
2023-03-11T06:42:52.431Z,1.90
2023-03-11T06:45:23.523Z,1.80
2023-03-11T06:47:54.408Z,1.80
2023-03-11T06:50:26.092Z,1.90
2023-03-11T06:52:57.500Z,1.90
2023-03-11T06:55:28.637Z,1.90
2023-03-11T06:57:59.575Z,1.90
2023-03-11T07:00:31.285Z,1.90
2023-03-11T07:03:02.265Z,1.90
2023-03-11T07:05:33.167Z,1.90
2023-03-11T07:08:04.238Z,2.00
2023-03-11T07:10:35.704Z,2.00
2023-03-11T07:13:06.669Z,2.00
2023-03-11T07:15:37.542Z,2.00
2023-03-11T07:18:08.477Z,2.10
2023-03-11T07:20:39.368Z,2.20
2023-03-11T07:23:10.223Z,2.10
2023-03-11T07:25:47.478Z,2.20
2023-03-11T07:28:18.975Z,2.10
2023-03-11T07:30:50.555Z,2.10
2023-03-11T07:33:24.156Z,2.20
2023-03-11T07:35:55.090Z,2.30
2023-03-11T07:38:26.117Z,2.30
2023-03-11T07:41:00.525Z,2.30
2023-03-11T07:43:32.578Z,2.40
2023-03-11T07:46:07.019Z,2.50
2023-03-11T07:48:39.685Z,2.50
2023-03-11T07:51:11.781Z,2.40
2023-03-11T07:53:43.569Z,2.50
2023-03-11T07:56:16.951Z,2.60
2023-03-11T07:58:47.931Z,2.60
2023-03-11T08:01:22.835Z,2.60
2023-03-11T08:03:58.790Z,2.60
2023-03-11T08:06:33.135Z,2.50
2023-03-11T08:09:09.403Z,2.70
2023-03-11T08:11:40.722Z,2.70
2023-03-11T08:14:11.694Z,2.70
2023-03-11T08:16:42.695Z,2.80
2023-03-11T08:19:14.267Z,2.90
2023-03-11T08:21:45.261Z,2.90
2023-03-11T08:24:16.501Z,3.00
2023-03-11T08:26:47.384Z,3.10
2023-03-11T08:29:18.265Z,3.20
2023-03-11T08:31:49.139Z,3.20
2023-03-11T08:34:21.525Z,3.30
2023-03-11T08:36:52.601Z,3.40
2023-03-11T08:39:24.014Z,3.40
2023-03-11T08:41:54.940Z,3.50
2023-03-11T08:44:25.846Z,3.50
2023-03-11T08:46:56.775Z,3.40
2023-03-11T08:49:27.757Z,3.60
2023-03-11T08:51:58.680Z,3.60
2023-03-11T08:54:31.837Z,3.50
2023-03-11T08:57:04.678Z,3.50
2023-03-11T08:59:36.290Z,3.50
2023-03-11T09:02:07.533Z,3.60
2023-03-11T09:04:38.480Z,3.70
2023-03-11T09:07:11.946Z,3.70
2023-03-11T09:09:43.268Z,3.90
2023-03-11T09:12:14.248Z,3.90
2023-03-11T09:14:45.747Z,4.00
2023-03-11T09:17:17.299Z,3.70
2023-03-11T09:19:49.131Z,3.70
2023-03-11T09:22:20.086Z,3.70
2023-03-11T09:24:51.078Z,3.80
2023-03-11T09:27:21.998Z,3.90
2023-03-11T09:29:52.954Z,3.90
2023-03-11T09:32:24.163Z,3.90
2023-03-11T09:34:55.119Z,3.90
2023-03-11T09:37:27.901Z,4.00
2023-03-11T09:39:58.811Z,4.10
2023-03-11T09:42:35.419Z,4.10
2023-03-11T09:45:24.081Z,4.10
2023-03-11T09:48:53.840Z,4.10
2023-03-11T09:51:40.794Z,4.40
2023-03-11T09:54:13.885Z,4.30
2023-03-11T09:56:45.201Z,4.50
2023-03-11T09:59:32.190Z,4.50
2023-03-11T10:02:05.138Z,4.40
2023-03-11T10:04:42.791Z,4.20
2023-03-11T10:07:21.767Z,4.30
2023-03-11T10:09:56.949Z,4.30
2023-03-11T10:13:14.385Z,4.50
2023-03-11T10:15:54.489Z,4.70
2023-03-11T10:18:38.540Z,4.80
2023-03-11T10:21:58.213Z,4.80
2023-03-11T10:25:12.016Z,4.80
2023-03-11T10:28:08.957Z,4.50
2023-03-11T10:30:56.095Z,4.40
2023-03-11T10:33:40.147Z,4.50
2023-03-11T10:36:24.293Z,4.60
2023-03-11T10:38:56.228Z,4.70
2023-03-11T10:41:55.328Z,4.90
2023-03-11T10:44:37.548Z,4.90
2023-03-11T10:47:21.394Z,4.90
2023-03-11T10:49:52.882Z,4.90
2023-03-11T10:52:23.762Z,5.10
2023-03-11T10:55:03.480Z,5.30
2023-03-11T10:57:38.179Z,5.50
2023-03-11T11:00:17.292Z,5.60
2023-03-11T11:03:04.470Z,6.10
2023-03-11T11:05:35.468Z,6.30
2023-03-11T11:08:16.981Z,6.30
2023-03-11T11:11:00.527Z,6.30
2023-03-11T11:13:37.220Z,6.20
2023-03-11T11:16:20.948Z,6.70
2023-03-11T11:19:18.865Z,6.90
2023-03-11T11:21:52.238Z,6.80
2023-03-11T11:24:31.346Z,7.10
2023-03-11T11:27:21.968Z,7.30
2023-03-11T11:30:08.921Z,7.50
2023-03-11T11:32:39.936Z,7.90
2023-03-11T11:35:15.142Z,7.70
2023-03-11T11:38:02.578Z,7.40
2023-03-11T11:40:34.855Z,7.30
2023-03-11T11:43:17.226Z,7.00
2023-03-11T11:45:59.614Z,6.90
2023-03-11T11:48:51.996Z,6.80
2023-03-11T11:51:35.514Z,6.60
2023-03-11T11:54:27.420Z,6.10
2023-03-11T11:57:00.513Z,6.10
2023-03-11T11:59:31.619Z,6.00
2023-03-11T12:02:44.537Z,5.90
2023-03-11T12:05:22.446Z,6.10
2023-03-11T12:08:21.709Z,6.00
2023-03-11T12:11:06.635Z,6.30
2023-03-11T12:14:04.853Z,6.80
2023-03-11T12:16:43.132Z,7.10
2023-03-11T12:19:29.000Z,7.50
2023-03-11T12:22:36.601Z,7.60
2023-03-11T12:25:25.708Z,8.10
2023-03-11T12:28:12.765Z,8.50
2023-03-11T12:30:50.729Z,9.10
2023-03-11T12:33:38.652Z,9.20
2023-03-11T12:36:25.174Z,9.20
2023-03-11T12:38:56.756Z,9.00
2023-03-11T12:41:40.016Z,9.10
2023-03-11T12:44:29.687Z,9.30
2023-03-11T12:47:22.541Z,9.60
2023-03-11T12:49:56.304Z,9.50
2023-03-11T12:52:29.228Z,9.50
2023-03-11T12:55:00.252Z,9.50
2023-03-11T12:57:48.912Z,9.50
2023-03-11T13:01:07.749Z,9.50
2023-03-11T13:04:43.744Z,9.40
2023-03-11T13:08:01.001Z,9.40
2023-03-11T13:10:41.672Z,9.60
2023-03-11T13:13:33.738Z,9.40
2023-03-11T13:16:14.123Z,9.40
2023-03-11T13:18:47.799Z,9.30
2023-03-11T13:21:27.545Z,9.30
2023-03-11T13:24:22.026Z,8.90
2023-03-11T13:27:04.392Z,8.60
2023-03-11T13:30:16.745Z,8.30
2023-03-11T13:33:26.301Z,8.30
2023-03-11T13:36:10.563Z,8.30
2023-03-11T13:39:13.950Z,8.20
2023-03-11T13:41:45.740Z,8.70
2023-03-11T13:44:19.565Z,9.10
2023-03-11T13:47:09.918Z,9.20
2023-03-11T13:50:12.893Z,9.60
2023-03-11T13:52:55.694Z,9.80
2023-03-11T13:55:40.412Z,9.80
2023-03-11T13:58:22.665Z,10.30
2023-03-11T14:00:59.806Z,10.10
2023-03-11T14:03:41.191Z,9.90
2023-03-11T14:06:19.943Z,10.10
2023-03-11T14:08:57.022Z,10.50
2023-03-11T14:11:29.587Z,10.60
2023-03-11T14:14:01.835Z,10.70
2023-03-11T14:16:44.210Z,10.90
2023-03-11T14:19:17.530Z,10.70
2023-03-11T14:21:54.823Z,10.60
2023-03-11T14:24:29.339Z,10.50
2023-03-11T14:27:05.067Z,10.60
2023-03-11T14:29:39.655Z,10.60
2023-03-11T14:32:32.858Z,10.50
2023-03-11T14:35:20.598Z,10.40
2023-03-11T14:37:52.229Z,10.10
2023-03-11T14:40:30.658Z,10.00
2023-03-11T14:43:07.500Z,9.70
2023-03-11T14:45:40.473Z,9.60
2023-03-11T14:48:16.681Z,9.30
2023-03-11T14:50:49.753Z,9.30
2023-03-11T14:54:17.633Z,9.20
2023-03-11T14:56:57.097Z,9.00
2023-03-11T14:59:34.641Z,9.20
2023-03-11T15:02:55.655Z,9.00
2023-03-11T15:05:51.005Z,8.90
2023-03-11T15:08:27.316Z,8.90
2023-03-11T15:11:08.686Z,8.90
2023-03-11T15:13:43.209Z,9.00
2023-03-11T15:16:35.950Z,8.90
2023-03-11T15:19:29.839Z,8.80
2023-03-11T15:22:38.803Z,9.20
2023-03-11T15:25:20.093Z,9.80
2023-03-11T15:27:51.230Z,9.40
2023-03-11T15:30:30.217Z,9.10
2023-03-11T15:33:01.159Z,8.80
2023-03-11T15:35:46.099Z,8.60
2023-03-11T15:38:25.585Z,8.50
2023-03-11T15:41:01.176Z,8.30
2023-03-11T15:43:46.056Z,8.10
2023-03-11T15:46:17.003Z,8.10
2023-03-11T15:48:47.855Z,8.00
2023-03-11T15:51:20.589Z,7.90
2023-03-11T15:53:51.450Z,7.60
2023-03-11T15:56:25.051Z,7.90
2023-03-11T15:58:56.210Z,7.80
2023-03-11T16:01:29.066Z,7.60
2023-03-11T16:04:00.107Z,7.50
2023-03-11T16:06:31.034Z,7.20
2023-03-11T16:09:01.885Z,7.00
2023-03-11T16:11:33.191Z,6.90
2023-03-11T16:14:04.395Z,6.80
2023-03-11T16:16:35.260Z,6.70
2023-03-11T16:19:06.093Z,6.70
2023-03-11T16:21:43.109Z,6.70
2023-03-11T16:24:24.206Z,6.60
2023-03-11T16:26:55.584Z,6.60
2023-03-11T16:29:27.090Z,6.50
2023-03-11T16:31:58.044Z,6.50
2023-03-11T16:34:28.901Z,6.60
2023-03-11T16:36:59.798Z,6.60
2023-03-11T16:39:30.683Z,6.50
2023-03-11T16:42:01.721Z,6.40
2023-03-11T16:44:32.620Z,6.30
2023-03-11T16:47:03.581Z,6.30
2023-03-11T16:49:34.436Z,6.30
2023-03-11T16:52:05.692Z,6.30
2023-03-11T16:54:36.606Z,6.20
2023-03-11T16:57:07.466Z,6.30
2023-03-11T16:59:39.174Z,6.20
2023-03-11T17:02:12.030Z,6.20
2023-03-11T17:04:42.963Z,6.20
2023-03-11T17:07:14.026Z,6.10
2023-03-11T17:09:44.983Z,6.10
2023-03-11T17:12:18.374Z,6.10
2023-03-11T17:14:49.312Z,6.10
2023-03-11T17:17:21.886Z,6.00
2023-03-11T17:19:52.799Z,6.00
2023-03-11T17:22:23.771Z,5.90
2023-03-11T17:24:54.760Z,5.70
2023-03-11T17:27:26.215Z,5.80
2023-03-11T17:29:57.085Z,5.80
2023-03-11T17:32:29.365Z,5.80
2023-03-11T17:35:00.489Z,5.80
2023-03-11T17:37:31.894Z,5.70
2023-03-11T17:40:03.021Z,5.70
2023-03-11T17:42:33.948Z,5.60
2023-03-11T17:45:05.385Z,5.60
2023-03-11T17:47:36.941Z,5.60
2023-03-11T17:50:08.660Z,5.50
2023-03-11T17:52:39.721Z,5.50
2023-03-11T17:55:11.027Z,5.40
2023-03-11T17:57:45.520Z,5.30
2023-03-11T18:00:17.379Z,5.20
2023-03-11T18:02:48.393Z,5.20
2023-03-11T18:05:20.162Z,5.20
2023-03-11T18:07:51.077Z,5.30
2023-03-11T18:10:22.046Z,5.30
2023-03-11T18:12:52.974Z,5.20
2023-03-11T18:15:24.481Z,5.20
2023-03-11T18:17:56.972Z,5.10
2023-03-11T18:20:27.893Z,5.20
2023-03-11T18:22:58.755Z,5.10
2023-03-11T18:25:29.662Z,5.00
2023-03-11T18:28:00.600Z,5.00
2023-03-11T18:30:31.505Z,4.80
2023-03-11T18:33:02.386Z,4.80
2023-03-11T18:35:33.245Z,4.70
2023-03-11T18:38:04.153Z,4.60
2023-03-11T18:40:35.074Z,4.60
2023-03-11T18:43:06.035Z,4.60
2023-03-11T18:45:39.873Z,4.60
2023-03-11T18:48:10.741Z,4.60
2023-03-11T18:50:41.614Z,4.60
2023-03-11T18:53:12.442Z,4.50
2023-03-11T18:55:43.322Z,4.50
2023-03-11T18:58:14.800Z,4.40
2023-03-11T19:00:46.161Z,4.40
2023-03-11T19:03:17.296Z,4.40
2023-03-11T19:05:50.880Z,4.30
2023-03-11T19:08:21.924Z,4.30
2023-03-11T19:10:53.930Z,4.10
2023-03-11T19:13:29.744Z,4.00
2023-03-11T19:16:11.523Z,3.90
2023-03-11T19:18:42.367Z,3.90
2023-03-11T19:21:15.316Z,3.80
2023-03-11T19:23:46.673Z,3.70
2023-03-11T19:26:17.710Z,3.70
2023-03-11T19:28:49.024Z,3.60
2023-03-11T19:31:20.070Z,3.50
2023-03-11T19:33:51.252Z,3.50
2023-03-11T19:36:22.129Z,3.40
2023-03-11T19:38:53.367Z,3.30
2023-03-11T19:41:24.381Z,3.20
2023-03-11T19:43:55.708Z,3.20
2023-03-11T19:46:28.307Z,3.10
2023-03-11T19:48:59.668Z,3.00
2023-03-11T19:51:42.480Z,2.90
2023-03-11T19:54:18.823Z,2.80
2023-03-11T19:56:50.386Z,4.10
2023-03-11T19:59:21.725Z,3.70
2023-03-11T20:01:52.699Z,3.40
2023-03-11T20:04:23.730Z,3.20
2023-03-11T20:06:55.002Z,3.00
2023-03-11T20:09:25.917Z,4.00
2023-03-11T20:11:56.870Z,4.90
2023-03-11T20:14:27.847Z,4.20
2023-03-11T20:16:58.813Z,3.70
2023-03-11T20:19:29.694Z,3.20
2023-03-11T20:22:00.746Z,2.90
2023-03-11T20:24:31.710Z,2.80
2023-03-11T20:27:02.605Z,2.70
2023-03-11T20:29:33.497Z,2.60
2023-03-11T20:32:04.710Z,2.60
2023-03-11T20:34:35.708Z,2.40
2023-03-11T20:37:06.626Z,4.00
2023-03-11T20:39:39.325Z,5.20
2023-03-11T20:42:10.277Z,4.20
2023-03-11T20:44:41.246Z,3.60
2023-03-11T20:47:12.209Z,3.20
2023-03-11T20:49:43.977Z,2.80
2023-03-11T20:52:15.043Z,2.50
2023-03-11T20:54:45.955Z,2.40
2023-03-11T20:57:17.040Z,2.30
2023-03-11T20:59:47.896Z,2.10
2023-03-11T21:02:18.945Z,2.00
2023-03-11T21:04:49.809Z,2.00
2023-03-11T21:07:20.796Z,1.90
2023-03-11T21:09:54.638Z,1.80
2023-03-11T21:12:26.242Z,1.70
2023-03-11T21:14:57.408Z,1.60
2023-03-11T21:17:28.411Z,1.60
2023-03-11T21:19:59.267Z,1.60
2023-03-11T21:22:30.171Z,1.60
2023-03-11T21:25:02.108Z,1.50
2023-03-11T21:27:33.035Z,1.40
2023-03-11T21:30:04.992Z,1.50
2023-03-11T21:32:36.163Z,1.40
2023-03-11T21:35:07.546Z,1.40
2023-03-11T21:37:38.577Z,1.20
2023-03-11T21:40:10.754Z,1.30
2023-03-11T21:42:41.695Z,1.20
2023-03-11T21:45:12.916Z,1.20
2023-03-11T21:47:43.850Z,1.20
2023-03-11T21:50:14.717Z,1.10
2023-03-11T21:52:45.822Z,1.20
2023-03-11T21:55:17.368Z,1.30
2023-03-11T21:57:48.295Z,1.20
2023-03-11T22:00:19.579Z,1.20
2023-03-11T22:02:50.712Z,1.20
2023-03-11T22:05:21.723Z,1.30
2023-03-11T22:07:52.961Z,1.10
2023-03-11T22:10:24.116Z,1.10
2023-03-11T22:12:55.116Z,1.00
2023-03-11T22:15:26.281Z,1.10
2023-03-11T22:17:57.226Z,1.10
2023-03-11T22:20:28.167Z,1.00
2023-03-11T22:22:59.453Z,1.00
2023-03-11T22:25:30.323Z,1.00
2023-03-11T22:28:01.460Z,1.00
2023-03-11T22:30:32.346Z,1.00
2023-03-11T22:33:03.215Z,1.00
2023-03-11T22:35:34.709Z,0.90
2023-03-11T22:38:05.970Z,0.90
2023-03-11T22:40:41.424Z,0.80
2023-03-11T22:43:13.210Z,0.80
2023-03-11T22:45:45.891Z,0.80
2023-03-11T22:48:16.789Z,0.80
2023-03-11T22:50:47.926Z,0.80
2023-03-11T22:53:21.503Z,0.80
2023-03-11T22:55:53.053Z,0.80
2023-03-11T22:58:23.919Z,0.70
2023-03-11T23:00:54.753Z,0.80
2023-03-11T23:03:26.533Z,0.70
2023-03-11T23:06:07.683Z,0.70
2023-03-11T23:08:38.630Z,0.70
2023-03-11T23:11:13.035Z,0.60
2023-03-11T23:13:45.034Z,0.60
2023-03-11T23:16:19.924Z,0.60
2023-03-11T23:18:53.937Z,0.60
2023-03-11T23:21:31.280Z,0.50
2023-03-11T23:24:05.078Z,0.60
2023-03-11T23:26:37.436Z,0.60
2023-03-11T23:29:08.303Z,0.40
2023-03-11T23:31:39.319Z,0.40
2023-03-11T23:34:10.185Z,0.40
2023-03-11T23:36:41.049Z,0.30
2023-03-11T23:39:11.898Z,0.30
2023-03-11T23:41:42.783Z,0.30
2023-03-11T23:44:16.749Z,0.20
2023-03-11T23:46:47.654Z,0.20
2023-03-11T23:49:18.554Z,0.20
2023-03-11T23:51:49.473Z,0.20
2023-03-11T23:54:20.411Z,0.20
2023-03-11T23:56:51.272Z,0.20
2023-03-11T23:59:22.199Z,0.20
